Time;durP1;ratioP1;P1;durP2;ratioP2;P2;SDS_P1;SDS_P2;PMS_P1;PMS_P2;Temp;Humidity;BMP_temperature;BMP_pressure;BME280_temperature;BME280_humidity;BME280_pressure;Samples;Min_cycle;Max_cycle;Signal;HPM_P1;HPM_P2
2022/05/11 00:02:23;;;;;;;2.00;1.90;;;;;;;19.58;54.23;96936.53;10250267;29;20047;-46
2022/05/11 00:07:43;;;;;;;2.92;2.13;;;;;;;19.59;54.31;96929.22;10260638;28;20488;-46
2022/05/11 00:13:02;;;;;;;1.90;1.80;;;;;;;19.59;54.23;96934.63;10243555;28;20040;-47
2022/05/11 00:18:22;;;;;;;2.40;1.90;;;;;;;19.59;54.36;96921.91;10248439;29;20055;-46
2022/05/11 00:23:41;;;;;;;1.90;1.80;;;;;;;19.59;54.31;96927.31;10247879;29;20114;-47
2022/05/11 00:29:01;;;;;;;1.80;1.70;;;;;;;19.59;54.29;96913.03;10249215;29;20406;-46
2022/05/11 00:34:20;;;;;;;1.80;1.70;;;;;;;19.59;54.46;96921.91;10248833;29;20105;-47
2022/05/11 00:39:39;;;;;;;1.80;1.70;;;;;;;19.59;54.30;96915.72;10247590;29;20113;-46
2022/05/11 00:44:58;;;;;;;1.80;1.70;;;;;;;19.58;54.24;96912.19;10234947;28;20498;-48
2022/05/11 00:50:34;;;;;;;2.03;1.65;;;;;;;19.58;54.42;96911.41;10246710;29;20059;-46
2022/05/11 00:55:56;;;;;;;1.92;1.83;;;;;;;19.58;54.29;96906.00;10250289;29;20066;-47
2022/05/11 01:01:16;;;;;;;1.70;1.60;;;;;;;19.57;54.38;96905.22;10247777;28;20043;-46
2022/05/11 01:06:37;;;;;;;2.13;1.90;;;;;;;19.57;54.48;96905.22;10246796;28;20071;-46
2022/05/11 01:11:58;;;;;;;1.83;1.70;;;;;;;19.56;54.39;96896.34;10249204;29;20059;-47
2022/05/11 01:17:18;;;;;;;1.88;1.77;;;;;;;19.56;54.35;96900.91;10246795;29;20051;-46
2022/05/11 01:22:45;;;;;;;1.80;1.70;;;;;;;19.57;54.47;96894.41;10230859;28;20051;-46
2022/05/11 01:28:11;;;;;;;1.92;1.75;;;;;;;19.56;54.42;96890.94;10255170;28;20043;-46
2022/05/11 01:33:31;;;;;;;1.95;1.80;;;;;;;19.55;54.23;96889.31;10246665;29;20051;-46
2022/05/11 01:38:53;;;;;;;1.85;1.75;;;;;;;19.57;54.40;96894.41;10246985;29;20055;-46
2022/05/11 01:44:16;;;;;;;1.48;1.38;;;;;;;19.57;54.41;96891.72;10244812;29;20059;-47
2022/05/11 01:49:35;;;;;;;1.70;1.60;;;;;;;19.55;54.38;96889.31;10241559;29;20545;-46
2022/05/11 01:54:54;;;;;;;2.00;1.67;;;;;;;19.56;54.33;96890.13;10246562;29;20051;-46
2022/05/11 02:00:14;;;;;;;1.85;1.75;;;;;;;19.55;54.33;96888.53;10257559;28;20407;-47
2022/05/11 02:11:13;;;;;;;1.80;1.70;;;;;;;19.54;54.31;96886.94;10246196;29;20055;-46
2022/05/11 02:16:33;;;;;;;1.88;1.70;;;;;;;19.53;54.49;96885.38;10245007;29;20079;-47
2022/05/11 02:21:53;;;;;;;1.65;1.55;;;;;;;19.54;54.45;96887.75;10246634;29;20562;-46
2022/05/11 02:27:13;;;;;;;1.60;1.50;;;;;;;19.54;54.55;96890.47;10246679;29;20114;-46
2022/05/11 02:32:32;;;;;;;1.60;1.50;;;;;;;19.54;54.31;96886.94;10247484;28;20083;-48
2022/05/11 02:38:01;;;;;;;1.70;1.60;;;;;;;19.53;54.28;96877.25;10252451;29;20978;-46
2022/05/11 02:43:20;;;;;;;;;;;;;;;19.54;54.62;96878.84;10253820;28;20103;-47
2022/05/11 02:48:40;;;;;;;1.80;1.70;;;;;;;19.52;54.22;96879.19;10252410;28;19922;-46
2022/05/11 02:54:00;;;;;;;1.60;1.50;;;;;;;19.53;54.39;96882.66;10254482;29;20243;-46
2022/05/11 02:59:19;;;;;;;1.88;1.75;;;;;;;19.53;54.39;96879.97;10246260;29;20422;-47
2022/05/11 03:04:38;;;;;;;1.88;1.60;;;;;;;19.53;54.20;96879.97;10248925;29;20054;-46
2022/05/11 03:09:57;;;;;;;1.60;1.50;;;;;;;19.52;54.35;96881.88;10274536;28;20159;-47
2022/05/11 03:15:17;;;;;;;1.60;1.50;;;;;;;19.51;54.24;96882.19;10268102;28;20051;-45
2022/05/11 03:20:36;;;;;;;1.80;1.70;;;;;;;19.51;54.37;96874.88;10267316;28;20517;-46
2022/05/11 03:25:55;;;;;;;1.65;1.55;;;;;;;19.51;54.39;96887.59;10256342;28;20051;-46
2022/05/11 03:31:15;;;;;;;1.55;1.38;;;;;;;19.51;54.32;96884.91;10255387;28;20043;-46
2022/05/11 03:36:35;;;;;;;1.70;1.60;;;;;;;19.52;54.35;96883.78;10247038;29;20051;-46
2022/05/11 03:41:54;;;;;;;1.58;1.48;;;;;;;19.50;54.30;96892.22;10251507;29;20062;-46
2022/05/11 03:47:13;;;;;;;1.90;1.80;;;;;;;19.51;54.33;96896.50;10277313;28;20058;-46
2022/05/11 03:52:33;;;;;;;2.00;1.80;;;;;;;19.51;54.36;96898.41;10277146;28;20094;-46
2022/05/11 03:57:52;;;;;;;1.60;1.50;;;;;;;19.50;54.47;96902.22;10266461;28;20059;-46
2022/05/11 04:03:12;;;;;;;1.70;1.60;;;;;;;19.49;54.34;96898.72;10256485;28;20411;-46
2022/05/11 04:08:31;;;;;;;2.67;1.45;;;;;;;19.51;54.39;96898.41;10260932;28;20082;-47
2022/05/11 04:13:51;;;;;;;1.50;1.40;;;;;;;19.51;54.58;96901.91;10250263;29;20414;-50
2022/05/11 04:19:11;;;;;;;2.38;2.17;;;;;;;19.48;52.65;96905.25;10251049;29;20058;-47
2022/05/11 04:24:30;;;;;;;2.00;1.80;;;;;;;19.51;53.61;96909.22;10254946;28;20051;-46
2022/05/11 04:29:49;;;;;;;2.45;1.73;;;;;;;19.51;53.94;96904.59;10250096;28;20122;-47
2022/05/11 04:35:10;;;;;;;2.67;1.73;;;;;;;19.52;54.03;96898.09;10248956;29;20074;-47
2022/05/11 04:40:30;;;;;;;1.73;1.63;;;;;;;19.54;54.19;96906.66;10252608;28;20085;-48
2022/05/11 04:45:49;;;;;;;3.53;2.30;;;;;;;19.54;53.95;96903.97;10247442;28;20047;-48
2022/05/11 04:51:09;;;;;;;4.15;3.33;;;;;;;19.45;49.75;96903.19;10249024;29;20450;-48
2022/05/11 04:56:28;;;;;;;3.75;3.38;;;;;;;19.37;48.56;96906.69;10248120;28;20473;-48
2022/05/11 05:01:47;;;;;;;3.95;3.58;;;;;;;19.33;48.69;96911.16;10248701;28;20495;-48
2022/05/11 05:07:07;;;;;;;5.15;3.55;;;;;;;19.36;49.30;96905.09;10259071;28;20418;-46
2022/05/11 05:12:26;;;;;;;5.25;3.35;;;;;;;19.39;49.30;96898.28;10242218;29;20063;-47
2022/05/11 05:17:45;;;;;;;8.18;4.05;;;;;;;19.41;49.49;96898.75;10238356;29;20051;-47
2022/05/11 05:23:04;;;;;;;9.50;4.40;;;;;;;19.41;49.63;96891.44;10244952;29;20603;-47
2022/05/11 05:34:02;;;;;;;7.17;4.40;;;;;;;19.44;49.97;96895.41;10241545;29;20047;-47
2022/05/11 05:39:22;;;;;;;11.75;4.95;;;;;;;19.44;50.14;96898.09;10234930;29;20667;-46
2022/05/11 05:44:41;;;;;;;6.80;4.25;;;;;;;19.43;50.25;96897.31;10242854;29;20073;-47
2022/05/11 05:50:00;;;;;;;6.93;3.95;;;;;;;19.45;50.19;96915.91;10246258;29;20106;-47
2022/05/11 05:55:21;;;;;;;6.55;4.38;;;;;;;19.44;50.20;96907.00;10246716;29;20126;-47
2022/05/11 06:00:40;;;;;;;12.18;3.97;;;;;;;19.45;50.42;96910.50;10255786;28;20040;-48
2022/05/11 06:06:00;;;;;;;7.47;4.30;;;;;;;19.45;50.56;96908.59;10255562;28;20055;-48
2022/05/11 06:11:19;;;;;;;7.15;3.60;;;;;;;19.47;50.72;96913.69;10244349;28;20059;-47
2022/05/11 06:16:39;;;;;;;5.25;3.53;;;;;;;19.46;50.60;96907.47;10256786;29;20487;-48
2022/05/11 06:21:58;;;;;;;7.45;3.47;;;;;;;19.46;50.63;96909.38;10256348;29;20059;-47
2022/05/11 06:27:20;;;;;;;9.18;4.10;;;;;;;19.45;50.50;96903.19;10256584;29;20059;-47
2022/05/11 06:32:39;;;;;;;3.50;3.20;;;;;;;19.45;50.50;96910.50;10263962;28;20595;-47
2022/05/11 06:38:03;;;;;;;3.88;3.40;;;;;;;19.44;50.31;96901.59;10256464;29;20070;-48
2022/05/11 06:43:23;;;;;;;5.82;3.80;;;;;;;19.45;50.44;96905.09;10254308;28;20050;-49
2022/05/11 06:48:45;;;;;;;3.53;3.22;;;;;;;19.46;50.42;96901.28;10244535;29;20059;-47
2022/05/11 06:59:42;;;;;;;3.80;3.40;;;;;;;19.44;50.49;96896.19;10214827;29;20059;-48
2022/05/11 07:05:02;;;;;;;3.88;3.33;;;;;;;19.44;50.35;96893.47;10212373;29;20055;-47
2022/05/11 07:10:21;;;;;;;7.05;3.50;;;;;;;19.45;50.32;96888.88;10212696;29;20052;-47
2022/05/11 07:15:41;;;;;;;3.90;3.50;;;;;;;19.45;50.37;96886.97;10212615;29;20459;-47
2022/05/11 07:21:00;;;;;;;3.60;3.30;;;;;;;19.44;50.52;96890.00;10202129;29;20048;-48
2022/05/11 07:26:19;;;;;;;3.58;3.13;;;;;;;19.45;50.49;96884.28;10207568;29;20062;-48
2022/05/11 07:31:39;;;;;;;3.42;3.20;;;;;;;19.45;50.57;96880.78;10216422;29;20055;-50
2022/05/11 07:36:58;;;;;;;4.30;3.55;;;;;;;19.45;50.49;96883.47;10224440;29;20058;-48
2022/05/11 07:42:19;;;;;;;3.67;3.38;;;;;;;19.45;50.47;96883.47;10215700;29;20551;-47
2022/05/11 07:47:39;;;;;;;3.55;3.25;;;;;;;19.46;50.62;96877.75;10214359;29;20059;-48
2022/05/11 07:52:58;;;;;;;3.90;3.42;;;;;;;19.46;50.52;96868.84;10207834;29;20095;-47
2022/05/11 08:03:56;;;;;;;4.03;3.60;;;;;;;19.45;50.59;96876.16;10265751;28;20522;-46
2022/05/11 08:09:15;;;;;;;3.30;3.00;;;;;;;19.46;50.63;96874.25;10251690;29;20067;-47
2022/05/11 08:14:35;;;;;;;3.33;3.10;;;;;;;19.46;50.77;96877.75;10264923;28;20039;-47
2022/05/11 08:19:55;;;;;;;5.03;3.28;;;;;;;19.44;50.73;96861.06;10252790;29;20069;-47
2022/05/11 08:25:19;;;;;;;3.67;3.38;;;;;;;19.46;50.79;96868.84;10265416;28;20611;-47
2022/05/11 08:36:22;;;;;;;3.70;3.30;;;;;;;19.45;50.88;96859.16;10264812;28;20047;-47
2022/05/11 08:41:49;;;;;;;3.60;3.30;;;;;;;19.46;50.96;96852.63;10251858;28;20388;-47
2022/05/11 08:47:20;;;;;;;3.40;3.10;;;;;;;19.47;51.05;96857.72;10250241;28;20589;-47
2022/05/11 08:52:43;;;;;;;3.30;3.00;;;;;;;19.46;51.03;96852.63;10250984;29;20047;-48
2022/05/11 08:58:11;;;;;;;3.28;2.97;;;;;;;19.46;51.07;96858.81;10254175;28;20067;-47
2022/05/11 09:03:34;;;;;;;3.50;3.20;;;;;;;19.46;51.09;96856.13;10236893;29;20094;-48
2022/05/11 09:08:55;;;;;;;3.13;2.83;;;;;;;19.46;51.16;96855.34;10236637;29;20418;-47
2022/05/11 09:14:19;;;;;;;3.15;2.85;;;;;;;19.49;51.07;96860.13;10250946;29;20055;-48
2022/05/11 09:19:39;;;;;;;3.20;2.90;;;;;;;19.47;51.15;96854.25;10250601;29;20059;-47
2022/05/11 09:25:00;;;;;;;3.20;3.00;;;;;;;19.49;51.19;96855.50;10236396;28;20055;-47
2022/05/11 09:30:22;;;;;;;3.20;2.95;;;;;;;19.50;51.26;96854.41;10223700;29;20047;-48
2022/05/11 09:35:42;;;;;;;3.05;2.85;;;;;;;19.48;51.32;96851.22;10223588;29;20044;-47
2022/05/11 09:41:10;;;;;;;3.10;2.90;;;;;;;19.49;51.27;96852.78;10236846;28;20387;-47
2022/05/11 09:46:31;;;;;;;3.22;2.90;;;;;;;19.50;51.38;96849.00;10270082;28;20058;-47
2022/05/11 09:51:54;;;;;;;3.47;3.17;;;;;;;19.50;51.46;96840.88;10271236;28;20577;-47
2022/05/11 09:57:27;;;;;;;3.22;2.88;;;;;;;19.50;51.28;96843.59;10242783;29;20055;-47
2022/05/11 10:02:53;;;;;;;3.63;2.83;;;;;;;19.51;51.42;96830.84;10257934;29;20055;-47
2022/05/11 10:08:29;;;;;;;4.03;2.78;;;;;;;19.50;51.55;96824.66;10243569;29;20058;-47
2022/05/11 10:21:50;;;;;;;3.05;2.72;;;;;;;19.49;51.47;96831.19;10264012;28;20047;-47
2022/05/11 10:25:26;;;;;;;3.03;2.72;;;;;;;19.51;51.56;96817.34;10257107;29;20505;-47
2022/05/11 10:31:11;;;;;;;3.05;2.85;;;;;;;19.51;51.58;96812.72;10268578;28;20039;-47
2022/05/11 10:37:00;;;;;;;2.80;2.60;;;;;;;19.51;51.57;96799.22;10256772;29;20106;-47
2022/05/11 10:42:29;;;;;;;3.03;2.83;;;;;;;19.52;51.54;96791.91;10241884;28;20415;-47
2022/05/11 10:47:51;;;;;;;6.68;2.63;;;;;;;19.51;51.61;96780.31;10268332;28;20047;-47
2022/05/11 10:53:42;;;;;;;2.70;2.50;;;;;;;19.52;51.60;96781.09;10255168;28;20055;-47
2022/05/11 10:59:24;;;;;;;2.63;2.42;;;;;;;19.52;51.74;96776.50;10255264;29;20059;-47
2022/05/11 11:04:54;;;;;;;2.70;2.50;;;;;;;19.52;51.64;96779.22;10268375;28;20043;-47
2022/05/11 11:10:52;;;;;;;2.70;2.50;;;;;;;19.52;51.66;96776.50;10240883;29;20054;-47
2022/05/11 11:16:13;;;;;;;3.40;2.73;;;;;;;19.52;51.56;96763.00;10244714;29;20426;-47
2022/05/11 11:21:33;;;;;;;2.78;2.58;;;;;;;19.53;51.77;96769.97;10254230;29;20066;-47
2022/05/11 11:26:58;;;;;;;2.88;2.55;;;;;;;19.53;51.59;96755.66;10240472;29;20051;-47
2022/05/11 11:32:21;;;;;;;2.90;2.70;;;;;;;19.53;51.59;96751.06;10239871;29;20061;-47
2022/05/11 11:37:43;;;;;;;2.47;2.35;;;;;;;19.53;51.59;96744.88;10254587;29;20062;-47
2022/05/11 11:43:42;;;;;;;3.10;2.70;;;;;;;19.53;51.72;96748.34;10214573;29;20538;-47
2022/05/11 11:49:21;;;;;;;3.00;2.50;;;;;;;19.54;51.73;96743.72;10253590;29;20054;-47
2022/05/11 11:54:41;;;;;;;2.88;2.67;;;;;;;19.53;51.68;96726.72;10252804;28;20059;-47
2022/05/11 12:00:25;;;;;;;2.83;2.53;;;;;;;19.55;51.79;96721.78;10253818;29;20083;-48
2022/05/11 12:05:52;;;;;;;2.63;2.42;;;;;;;19.55;51.80;96713.69;10232670;28;20059;-47
2022/05/11 12:16:59;;;;;;;2.60;2.40;;;;;;;19.54;51.79;96714.00;10253101;29;20054;-48
2022/05/11 12:22:22;;;;;;;2.90;2.70;;;;;;;19.55;51.70;96704.81;10252800;29;20055;-47
2022/05/11 12:27:45;;;;;;;2.65;2.45;;;;;;;19.56;51.72;96703.66;10237980;29;20066;-47
2022/05/11 12:33:06;;;;;;;2.60;2.40;;;;;;;19.59;51.80;96700.31;10250431;29;20113;-47
2022/05/11 12:38:38;;;;;;;2.83;2.47;;;;;;;19.59;51.80;96684.09;10249625;28;20081;-48
2022/05/11 12:44:04;;;;;;;2.53;2.33;;;;;;;19.59;51.75;96686.03;10255314;28;20058;-47
2022/05/11 12:49:25;;;;;;;2.72;2.53;;;;;;;19.58;51.54;96689.84;10248172;28;20054;-48
2022/05/11 12:54:56;;;;;;;2.72;2.53;;;;;;;19.52;49.79;96676.53;10249206;28;20059;-48
2022/05/11 13:00:18;;;;;;;3.65;2.40;;;;;;;19.50;50.60;96667.16;10262711;28;20039;-48
2022/05/11 13:05:38;;;;;;;2.70;2.50;;;;;;;19.51;51.44;96661.41;10226232;28;20044;-47
2022/05/11 13:10:57;;;;;;;3.50;2.75;;;;;;;19.49;50.42;96652.06;10197380;28;20091;-47
2022/05/11 13:16:20;;;;;;;2.83;2.53;;;;;;;19.50;50.85;96653.63;10224104;28;20047;-47
2022/05/11 13:21:39;;;;;;;4.55;2.58;;;;;;;19.51;51.51;96639.81;10208135;28;20052;-46
2022/05/11 13:26:59;;;;;;;4.05;2.53;;;;;;;19.52;51.78;96646.00;10226479;28;20414;-48
2022/05/11 13:32:24;;;;;;;2.80;2.60;;;;;;;19.55;52.36;96643.44;10223808;28;20059;-47
2022/05/11 13:38:17;;;;;;;2.88;2.50;;;;;;;19.58;51.82;96635.78;10217588;28;20103;-50
2022/05/11 13:43:46;;;;;;;2.92;2.60;;;;;;;19.58;50.90;96622.28;10216820;28;20067;-47
2022/05/11 13:49:45;;;;;;;2.70;2.47;;;;;;;19.56;51.02;96615.31;10250959;28;20059;-48
2022/05/11 13:55:06;;;;;;;2.53;2.33;;;;;;;19.58;51.08;96612.25;10225351;28;20052;-48
2022/05/11 14:00:27;;;;;;;2.38;2.17;;;;;;;19.60;50.84;96599.25;10238880;29;20051;-48
2022/05/11 14:05:46;;;;;;;2.60;2.40;;;;;;;19.61;50.89;96600.81;10248295;29;20503;-49
2022/05/11 14:11:06;;;;;;;2.60;2.35;;;;;;;19.62;50.80;96590.78;10234241;28;20281;-49
2022/05/11 14:16:27;;;;;;;3.03;2.13;;;;;;;19.65;49.20;96585.50;10246903;28;20062;-48
2022/05/11 14:21:47;;;;;;;2.03;1.80;;;;;;;19.67;48.15;96588.66;10256448;28;20053;-47
2022/05/11 14:27:07;;;;;;;2.35;2.15;;;;;;;19.68;48.22;96584.88;10247027;28;20087;-48
2022/05/11 14:32:29;;;;;;;3.08;1.92;;;;;;;19.70;47.41;96577.22;10254874;29;20118;-46
2022/05/11 14:37:49;;;;;;;3.33;1.95;;;;;;;19.69;47.27;96569.44;10258453;28;20051;-47
2022/05/11 14:43:10;;;;;;;2.75;2.03;;;;;;;19.70;47.25;96565.63;10234773;28;20510;-48
2022/05/11 14:48:32;;;;;;;3.45;2.10;;;;;;;19.71;47.62;96561.78;10249381;28;20388;-47
2022/05/11 14:53:51;;;;;;;2.70;2.15;;;;;;;19.71;47.74;96562.59;10263148;28;20491;-47
2022/05/11 15:04:49;;;;;;;2.30;2.10;;;;;;;19.71;48.19;96545.56;10242685;28;20047;-48
2022/05/11 15:10:08;;;;;;;3.15;2.40;;;;;;;19.72;48.60;96542.56;10244327;28;20514;-48
2022/05/11 15:15:28;;;;;;;2.90;2.17;;;;;;;19.75;49.01;96543.81;10229095;28;20438;-47
2022/05/11 15:20:48;;;;;;;2.20;2.10;;;;;;;19.76;49.07;96550.81;10215640;28;20063;-48
2022/05/11 15:26:07;;;;;;;3.25;2.50;;;;;;;19.80;49.29;96542.81;10236627;28;20050;-47
2022/05/11 15:31:26;;;;;;;2.85;2.45;;;;;;;19.82;49.47;96549.47;10246525;28;20051;-47
2022/05/11 15:36:47;;;;;;;2.78;2.30;;;;;;;19.82;49.80;96551.41;10249569;28;20513;-49
2022/05/11 15:42:08;;;;;;;2.67;2.20;;;;;;;19.83;50.02;96552.97;10211145;28;20130;-46
2022/05/11 15:47:27;;;;;;;2.47;2.28;;;;;;;19.82;50.44;96551.41;10198339;29;20067;-46
2022/05/11 15:52:53;;;;;;;2.53;2.30;;;;;;;19.82;50.58;96546.78;10214734;28;20067;-46
2022/05/11 15:58:12;;;;;;;3.85;2.50;;;;;;;19.81;50.84;96553.28;10214796;28;20435;-46
2022/05/11 16:03:31;;;;;;;2.40;2.20;;;;;;;19.82;50.92;96535.97;10215475;28;20048;-47
2022/05/11 16:08:52;;;;;;;2.95;2.20;;;;;;;19.83;51.19;96534.03;10220145;28;20043;-46
2022/05/11 16:14:13;;;;;;;2.38;2.17;;;;;;;19.82;51.13;96530.56;10216327;28;20514;-47
2022/05/11 16:19:51;;;;;;;3.53;2.45;;;;;;;19.82;51.39;96519.75;10248663;28;20066;-49
2022/05/11 16:25:11;;;;;;;2.53;2.33;;;;;;;19.83;51.32;96526.72;10250272;29;20082;-51
2022/05/11 16:30:31;;;;;;;2.50;2.30;;;;;;;19.84;51.47;96517.50;10240343;28;20039;-50
2022/05/11 16:35:51;;;;;;;4.13;2.80;;;;;;;19.88;50.00;96507.59;10211453;29;20063;-50
2022/05/11 16:41:11;;;;;;;2.65;2.45;;;;;;;19.91;49.58;96512.31;10223567;28;20063;-50
2022/05/11 16:46:30;;;;;;;3.28;2.55;;;;;;;19.91;49.25;96506.13;10249403;29;20055;-50
2022/05/11 16:51:51;;;;;;;4.88;2.60;;;;;;;19.90;48.93;96501.88;10249732;28;20536;-50
2022/05/11 16:57:11;;;;;;;4.40;2.40;;;;;;;19.89;48.46;96501.06;10242448;28;20052;-50
2022/05/11 17:02:31;;;;;;;3.35;2.58;;;;;;;19.91;48.06;96503.44;10230184;29;20043;-51
2022/05/11 17:07:50;;;;;;;3.95;2.70;;;;;;;19.91;47.85;96498.81;10240923;28;20102;-48
2022/05/11 17:13:10;;;;;;;2.83;2.63;;;;;;;19.90;47.60;96491.84;10230093;28;20047;-48
2022/05/11 17:18:32;;;;;;;4.60;2.45;;;;;;;19.92;47.51;96500.41;10212355;29;20064;-49
2022/05/11 17:23:52;;;;;;;4.15;2.90;;;;;;;19.90;47.91;96501.88;10248475;28;20106;-48
2022/05/11 17:29:12;;;;;;;3.25;2.70;;;;;;;19.88;48.33;96501.41;10226827;28;20043;-49
2022/05/11 17:34:31;;;;;;;3.95;2.55;;;;;;;19.86;48.80;96501.75;10209071;29;20047;-48
2022/05/11 17:39:50;;;;;;;3.55;2.80;;;;;;;19.86;49.23;96509.06;10222843;28;20059;-48
2022/05/11 17:45:16;;;;;;;2.60;2.40;;;;;;;19.86;48.23;96504.44;10252925;28;20053;-48
2022/05/11 17:50:36;;;;;;;2.67;2.47;;;;;;;19.86;47.90;96504.44;10248001;29;20047;-49
2022/05/11 17:55:55;;;;;;;4.72;2.33;;;;;;;19.86;48.13;96515.25;10245392;29;20426;-47
2022/05/11 18:01:17;;;;;;;2.80;2.60;;;;;;;19.86;48.46;96511.78;10192147;29;20051;-48
2022/05/11 18:06:37;;;;;;;2.63;2.42;;;;;;;19.86;48.34;96503.66;10181401;29;20056;-48
2022/05/11 18:11:56;;;;;;;2.75;2.55;;;;;;;19.84;48.30;96509.38;10197673;29;20055;-48
2022/05/11 18:17:15;;;;;;;4.70;2.40;;;;;;;19.84;48.19;96505.91;10217503;29;20051;-48
2022/05/11 18:22:36;;;;;;;3.25;2.20;;;;;;;19.84;48.63;96514.78;10217047;29;20119;-47
2022/05/11 18:27:56;;;;;;;3.50;2.22;;;;;;;19.83;47.69;96507.00;10216145;29;20064;-48
2022/05/11 18:33:16;;;;;;;2.28;2.08;;;;;;;19.81;47.60;96511.97;10181936;29;20423;-48
2022/05/11 18:38:35;;;;;;;8.15;2.42;;;;;;;19.80;47.65;96518.47;10213071;29;20064;-47
2022/05/11 18:43:55;;;;;;;4.10;2.50;;;;;;;19.80;47.45;96515.78;10217228;29;20055;-48
2022/05/11 18:49:14;;;;;;;20.73;2.85;;;;;;;19.79;46.80;96527.72;10189674;29;20500;-49
2022/05/11 18:54:35;;;;;;;4.38;2.28;;;;;;;19.76;46.40;96531.91;10179721;29;20040;-49
2022/05/11 18:59:55;;;;;;;4.85;2.08;;;;;;;19.74;46.20;96539.53;10176615;29;20048;-52
2022/05/11 19:05:15;;;;;;;4.93;2.60;;;;;;;19.72;46.03;96542.56;10179806;29;20091;-55
2022/05/11 19:10:34;;;;;;;3.83;2.70;;;;;;;19.73;45.91;96552.25;10173862;29;20056;-50
2022/05/11 19:15:54;;;;;;;3.22;2.28;;;;;;;-146.19;100.00;65364.44;10198028;29;20059;-47
2022/05/11 19:21:13;;;;;;;2.78;2.15;;;;;;;-146.19;100.00;65364.44;10178952;29;20080;-47
2022/05/11 19:26:33;;;;;;;3.53;2.20;;;;;;;-146.19;100.00;65364.44;10188675;28;20052;-46
2022/05/11 19:31:52;;;;;;;2.40;2.20;;;;;;;-146.19;100.00;65364.44;10208832;29;20040;-46
2022/05/11 19:37:12;;;;;;;3.25;2.10;;;;;;;-146.19;100.00;65364.44;10213359;29;20051;-48
2022/05/11 19:42:31;;;;;;;2.83;2.53;;;;;;;19.73;45.91;96552.25;10213531;29;20542;-47
2022/05/11 19:47:51;;;;;;;5.95;2.42;;;;;;;19.63;46.36;96562.66;10181880;29;20082;-47
2022/05/11 19:53:10;;;;;;;4.20;2.28;;;;;;;19.65;46.64;96568.50;10172577;29;20059;-49
2022/05/11 19:58:32;;;;;;;2.63;2.40;;;;;;;19.65;46.69;96560.41;10207790;28;20522;-48
2022/05/11 20:03:51;;;;;;;5.70;2.47;;;;;;;19.65;46.77;96568.50;10252129;29;20419;-50
2022/05/11 20:09:12;;;;;;;4.65;2.60;;;;;;;19.65;46.59;96561.19;10252009;29;20392;-49
2022/05/11 20:14:32;;;;;;;6.38;2.60;;;;;;;19.66;46.50;96556.56;10237256;28;20047;-50
2022/05/11 20:19:51;;;;;;;2.97;2.67;;;;;;;19.64;46.45;96556.91;10212683;28;20047;-50
2022/05/11 20:25:11;;;;;;;3.60;2.80;;;;;;;19.66;46.45;96559.28;10236342;28;20048;-49
2022/05/11 20:30:32;;;;;;;7.20;3.20;;;;;;;19.66;46.47;96553.88;10224833;28;20056;-50
2022/05/11 20:35:51;;;;;;;5.20;2.60;;;;;;;19.65;46.57;96547.69;10210396;28;20050;-49
2022/05/11 20:41:10;;;;;;;2.95;2.70;;;;;;;19.67;46.52;96545.44;10223379;28;20048;-50
2022/05/11 20:46:31;;;;;;;3.33;3.03;;;;;;;19.67;46.70;96540.03;10213320;29;20054;-50
2022/05/11 20:51:51;;;;;;;3.85;2.97;;;;;;;19.66;46.79;96545.75;10250645;29;20062;-50
2022/05/11 20:57:10;;;;;;;2.90;2.70;;;;;;;19.66;46.74;96548.47;10250109;29;20067;-49
2022/05/11 21:02:30;;;;;;;3.08;2.35;;;;;;;19.66;46.82;96546.56;10250084;29;20059;-50
2022/05/11 21:07:50;;;;;;;3.13;2.83;;;;;;;19.66;46.75;96543.88;10249327;29;20106;-51
2022/05/11 21:13:09;;;;;;;3.10;2.80;;;;;;;19.65;46.78;96533.38;10211621;28;20059;-50
2022/05/11 21:18:29;;;;;;;3.63;3.00;;;;;;;19.66;46.81;96537.66;10222726;29;20384;-50
2022/05/11 21:23:48;;;;;;;2.75;2.55;;;;;;;19.67;46.88;96533.84;10222936;29;20106;-50
2022/05/11 21:29:07;;;;;;;3.28;2.97;;;;;;;19.67;47.23;96531.91;10209441;28;20063;-50
2022/05/11 21:34:27;;;;;;;3.55;3.00;;;;;;;19.68;47.39;96538.91;10209788;29;20055;-50
2022/05/11 21:39:46;;;;;;;3.22;2.70;;;;;;;19.68;47.61;96535.41;10236930;29;20491;-49
2022/05/11 21:45:06;;;;;;;2.78;2.58;;;;;;;19.68;47.88;96540.81;10248491;29;20056;-50
2022/05/11 21:50:26;;;;;;;3.00;2.70;;;;;;;19.68;48.02;96540.81;10249254;29;20059;-50
2022/05/11 21:55:45;;;;;;;3.67;2.63;;;;;;;19.68;48.20;96538.09;10248117;29;20059;-50
2022/05/11 22:01:07;;;;;;;3.30;3.00;;;;;;;19.68;48.34;96540.81;10247624;29;20051;-50
2022/05/11 22:06:27;;;;;;;2.85;2.65;;;;;;;19.69;48.50;96548.59;10247990;29;20058;-50
2022/05/11 22:11:47;;;;;;;3.00;2.65;;;;;;;19.69;48.47;96547.81;10233210;29;20062;-51
2022/05/11 22:23:41;;;;;;;2.92;2.70;;;;;;;19.69;48.79;96540.47;10247717;29;20055;-50
2022/05/11 22:29:01;;;;;;;2.97;2.67;;;;;;;19.69;48.76;96543.19;10248174;29;20494;-50
2022/05/11 22:34:21;;;;;;;2.72;2.53;;;;;;;19.70;48.92;96538.59;10248133;29;20387;-50
2022/05/11 22:39:40;;;;;;;2.47;2.28;;;;;;;19.69;49.05;96537.00;10257534;28;20044;-50
2022/05/11 22:44:59;;;;;;;3.22;2.92;;;;;;;19.69;48.95;96543.19;10247125;29;20098;-50
2022/05/11 22:50:20;;;;;;;2.97;2.72;;;;;;;19.70;49.17;96535.88;10262720;28;20074;-50
2022/05/11 22:55:39;;;;;;;2.58;2.38;;;;;;;19.69;49.33;96542.41;10264986;28;20063;-48
2022/05/11 23:00:58;;;;;;;2.63;2.42;;;;;;;19.70;49.33;96544.00;10253934;29;20055;-48
2022/05/11 23:06:18;;;;;;;2.70;2.50;;;;;;;19.68;49.39;96538.91;10254286;29;20490;-47
2022/05/11 23:11:38;;;;;;;2.55;2.35;;;;;;;19.70;49.38;96539.38;10253626;29;20067;-47
2022/05/11 23:16:57;;;;;;;3.03;2.70;;;;;;;19.69;49.54;96537.78;10253958;29;20102;-47
2022/05/11 23:22:16;;;;;;;3.08;2.50;;;;;;;19.69;49.66;96537.00;10253115;29;20059;-48
2022/05/11 23:27:36;;;;;;;2.50;2.30;;;;;;;19.69;49.72;96543.19;10253601;29;20414;-48
2022/05/11 23:32:56;;;;;;;2.50;2.30;;;;;;;19.69;49.65;96539.69;10253350;29;20418;-48
2022/05/11 23:38:15;;;;;;;2.50;2.30;;;;;;;19.69;49.90;96537.78;10253208;29;20410;-48
2022/05/11 23:43:34;;;;;;;2.65;2.45;;;;;;;19.70;49.84;96538.59;10255641;28;20055;-47
2022/05/11 23:48:54;;;;;;;2.42;2.22;;;;;;;19.69;49.90;96537.00;10252844;29;20051;-47
2022/05/11 23:54:13;;;;;;;2.67;2.47;;;;;;;19.69;50.02;96542.41;10252106;29;20070;-48
2022/05/11 23:59:32;;;;;;;2.40;2.20;;;;;;;19.69;50.02;96535.09;10251748;28;20063;-47
